sensor_id;sensor_type;location;lat;lon;timestamp;temperature;humidity
39099;DHT22;24844;52.380;7.018;2023-05-10T00:00:01;14.50;99.90
39099;DHT22;24844;52.380;7.018;2023-05-10T00:02:26;14.60;99.90
39099;DHT22;24844;52.380;7.018;2023-05-10T00:04:52;14.80;99.90
39099;DHT22;24844;52.380;7.018;2023-05-10T00:07:17;15.00;99.90
39099;DHT22;24844;52.380;7.018;2023-05-10T00:09:43;14.80;99.90
39099;DHT22;24844;52.380;7.018;2023-05-10T00:12:09;14.70;99.90
39099;DHT22;24844;52.380;7.018;2023-05-10T00:14:35;14.60;99.90
39099;DHT22;24844;52.380;7.018;2023-05-10T00:17:00;14.40;99.90
39099;DHT22;24844;52.380;7.018;2023-05-10T00:19:26;14.40;99.90
39099;DHT22;24844;52.380;7.018;2023-05-10T00:21:52;14.70;99.90
39099;DHT22;24844;52.380;7.018;2023-05-10T00:24:17;14.40;99.90
39099;DHT22;24844;52.380;7.018;2023-05-10T00:26:43;14.40;99.90
39099;DHT22;24844;52.380;7.018;2023-05-10T00:29:09;14.00;99.90
39099;DHT22;24844;52.380;7.018;2023-05-10T00:31:34;13.80;99.90
39099;DHT22;24844;52.380;7.018;2023-05-10T00:34:00;14.10;99.90
39099;DHT22;24844;52.380;7.018;2023-05-10T00:36:25;13.70;99.90
39099;DHT22;24844;52.380;7.018;2023-05-10T00:38:51;13.70;99.90
39099;DHT22;24844;52.380;7.018;2023-05-10T00:41:17;13.90;99.90
39099;DHT22;24844;52.380;7.018;2023-05-10T00:43:42;13.60;99.90
39099;DHT22;24844;52.380;7.018;2023-05-10T00:46:08;13.50;99.90
39099;DHT22;24844;52.380;7.018;2023-05-10T00:48:34;13.50;99.90
39099;DHT22;24844;52.380;7.018;2023-05-10T00:51:01;13.50;99.90
39099;DHT22;24844;52.380;7.018;2023-05-10T00:53:27;13.50;99.90
39099;DHT22;24844;52.380;7.018;2023-05-10T00:55:54;13.50;99.90
39099;DHT22;24844;52.380;7.018;2023-05-10T00:58:19;13.70;99.90
39099;DHT22;24844;52.380;7.018;2023-05-10T01:00:46;13.70;99.90
39099;DHT22;24844;52.380;7.018;2023-05-10T01:03:12;13.70;99.90
39099;DHT22;24844;52.380;7.018;2023-05-10T01:05:38;13.60;99.90
39099;DHT22;24844;52.380;7.018;2023-05-10T01:08:04;13.60;99.90
39099;DHT22;24844;52.380;7.018;2023-05-10T01:10:30;13.50;99.90
39099;DHT22;24844;52.380;7.018;2023-05-10T01:12:56;13.70;99.90
39099;DHT22;24844;52.380;7.018;2023-05-10T01:15:24;13.80;99.90
39099;DHT22;24844;52.380;7.018;2023-05-10T01:17:50;13.60;99.90
39099;DHT22;24844;52.380;7.018;2023-05-10T01:20:16;13.60;99.90
39099;DHT22;24844;52.380;7.018;2023-05-10T01:25:53;13.60;99.90
39099;DHT22;24844;52.380;7.018;2023-05-10T01:34:23;13.50;99.90
39099;DHT22;24844;52.380;7.018;2023-05-10T01:36:59;13.60;99.90
39099;DHT22;24844;52.380;7.018;2023-05-10T01:39:37;13.40;99.90
39099;DHT22;24844;52.380;7.018;2023-05-10T01:44:31;13.50;99.90
39099;DHT22;24844;52.380;7.018;2023-05-10T01:47:12;13.70;99.90
39099;DHT22;24844;52.380;7.018;2023-05-10T01:49:47;13.80;99.90
39099;DHT22;24844;52.380;7.018;2023-05-10T01:52:18;13.70;99.90
39099;DHT22;24844;52.380;7.018;2023-05-10T01:54:50;13.70;99.90
39099;DHT22;24844;52.380;7.018;2023-05-10T01:57:20;13.70;99.90
39099;DHT22;24844;52.380;7.018;2023-05-10T01:59:50;13.60;99.90
39099;DHT22;24844;52.380;7.018;2023-05-10T02:02:17;13.60;99.90
39099;DHT22;24844;52.380;7.018;2023-05-10T02:04:45;13.50;99.90
39099;DHT22;24844;52.380;7.018;2023-05-10T02:07:12;13.60;99.90
39099;DHT22;24844;52.380;7.018;2023-05-10T02:09:38;13.40;99.90
39099;DHT22;24844;52.380;7.018;2023-05-10T02:12:06;13.40;99.90
39099;DHT22;24844;52.380;7.018;2023-05-10T02:14:35;13.60;99.90
39099;DHT22;24844;52.380;7.018;2023-05-10T02:17:04;13.90;99.90
39099;DHT22;24844;52.380;7.018;2023-05-10T02:19:32;13.70;99.90
39099;DHT22;24844;52.380;7.018;2023-05-10T02:21:59;13.60;99.90
39099;DHT22;24844;52.380;7.018;2023-05-10T02:24:26;13.70;99.90
39099;DHT22;24844;52.380;7.018;2023-05-10T02:26:54;13.40;99.90
39099;DHT22;24844;52.380;7.018;2023-05-10T02:29:23;13.50;99.90
39099;DHT22;24844;52.380;7.018;2023-05-10T02:31:51;13.60;99.90
39099;DHT22;24844;52.380;7.018;2023-05-10T02:34:17;13.50;99.90
39099;DHT22;24844;52.380;7.018;2023-05-10T02:36:43;13.60;99.90
39099;DHT22;24844;52.380;7.018;2023-05-10T02:39:09;13.50;99.90
39099;DHT22;24844;52.380;7.018;2023-05-10T02:41:40;13.70;99.90
39099;DHT22;24844;52.380;7.018;2023-05-10T02:44:07;13.60;99.90
39099;DHT22;24844;52.380;7.018;2023-05-10T02:46:33;13.70;99.90
39099;DHT22;24844;52.380;7.018;2023-05-10T02:48:59;13.70;99.90
39099;DHT22;24844;52.380;7.018;2023-05-10T02:51:30;13.60;99.90
39099;DHT22;24844;52.380;7.018;2023-05-10T02:53:57;13.70;99.90
39099;DHT22;24844;52.380;7.018;2023-05-10T02:56:33;13.70;99.90
39099;DHT22;24844;52.380;7.018;2023-05-10T02:58:59;13.80;99.90
39099;DHT22;24844;52.380;7.018;2023-05-10T03:01:25;13.70;99.90
39099;DHT22;24844;52.380;7.018;2023-05-10T03:03:51;13.60;99.90
39099;DHT22;24844;52.380;7.018;2023-05-10T03:06:16;13.60;99.90
39099;DHT22;24844;52.380;7.018;2023-05-10T03:08:43;13.60;99.90
39099;DHT22;24844;52.380;7.018;2023-05-10T03:14:08;13.50;99.90
39099;DHT22;24844;52.380;7.018;2023-05-10T03:16:45;13.60;99.90
39099;DHT22;24844;52.380;7.018;2023-05-10T03:19:32;13.40;99.90
39099;DHT22;24844;52.380;7.018;2023-05-10T03:22:01;13.60;99.90
39099;DHT22;24844;52.380;7.018;2023-05-10T03:24:30;13.30;99.90
39099;DHT22;24844;52.380;7.018;2023-05-10T03:26:57;13.50;99.90
39099;DHT22;24844;52.380;7.018;2023-05-10T03:29:25;13.50;99.90
39099;DHT22;24844;52.380;7.018;2023-05-10T03:31:51;13.50;99.90
39099;DHT22;24844;52.380;7.018;2023-05-10T03:34:16;13.40;99.90
39099;DHT22;24844;52.380;7.018;2023-05-10T03:36:48;13.50;99.90
39099;DHT22;24844;52.380;7.018;2023-05-10T03:39:13;13.50;99.90
39099;DHT22;24844;52.380;7.018;2023-05-10T03:41:39;13.50;99.90
39099;DHT22;24844;52.380;7.018;2023-05-10T03:44:04;13.50;99.90
39099;DHT22;24844;52.380;7.018;2023-05-10T03:46:30;13.60;99.90
39099;DHT22;24844;52.380;7.018;2023-05-10T03:48:55;13.70;99.90
39099;DHT22;24844;52.380;7.018;2023-05-10T03:51:21;13.50;99.90
39099;DHT22;24844;52.380;7.018;2023-05-10T03:53:47;13.40;99.90
39099;DHT22;24844;52.380;7.018;2023-05-10T03:56:13;13.60;99.90
39099;DHT22;24844;52.380;7.018;2023-05-10T03:58:38;13.60;99.90
39099;DHT22;24844;52.380;7.018;2023-05-10T04:01:04;13.60;99.90
39099;DHT22;24844;52.380;7.018;2023-05-10T04:03:29;13.60;99.90
39099;DHT22;24844;52.380;7.018;2023-05-10T04:06:01;13.50;99.90
39099;DHT22;24844;52.380;7.018;2023-05-10T04:08:27;13.70;99.90
39099;DHT22;24844;52.380;7.018;2023-05-10T04:10:52;13.60;99.90
39099;DHT22;24844;52.380;7.018;2023-05-10T04:13:18;13.20;99.90
39099;DHT22;24844;52.380;7.018;2023-05-10T04:15:44;13.40;99.90
39099;DHT22;24844;52.380;7.018;2023-05-10T04:18:10;13.70;99.90
39099;DHT22;24844;52.380;7.018;2023-05-10T04:20:35;13.50;99.90
39099;DHT22;24844;52.380;7.018;2023-05-10T04:23:01;13.60;99.90
39099;DHT22;24844;52.380;7.018;2023-05-10T04:25:26;13.70;99.90
39099;DHT22;24844;52.380;7.018;2023-05-10T04:27:52;13.70;99.90
39099;DHT22;24844;52.380;7.018;2023-05-10T04:30:17;13.80;99.90
39099;DHT22;24844;52.380;7.018;2023-05-10T04:32:43;13.90;99.90
39099;DHT22;24844;52.380;7.018;2023-05-10T04:35:09;13.80;99.90
39099;DHT22;24844;52.380;7.018;2023-05-10T04:37:36;13.70;99.90
39099;DHT22;24844;52.380;7.018;2023-05-10T04:40:02;13.70;99.90
39099;DHT22;24844;52.380;7.018;2023-05-10T04:42:28;13.70;99.90
39099;DHT22;24844;52.380;7.018;2023-05-10T04:44:54;13.80;99.90
39099;DHT22;24844;52.380;7.018;2023-05-10T04:47:20;13.80;99.90
39099;DHT22;24844;52.380;7.018;2023-05-10T04:49:45;13.80;99.90
39099;DHT22;24844;52.380;7.018;2023-05-10T04:52:11;13.90;99.90
39099;DHT22;24844;52.380;7.018;2023-05-10T04:54:37;14.10;99.90
39099;DHT22;24844;52.380;7.018;2023-05-10T04:57:02;13.70;99.90
39099;DHT22;24844;52.380;7.018;2023-05-10T04:59:28;13.90;99.90
39099;DHT22;24844;52.380;7.018;2023-05-10T05:01:53;13.80;99.90
39099;DHT22;24844;52.380;7.018;2023-05-10T05:04:19;13.90;99.90
39099;DHT22;24844;52.380;7.018;2023-05-10T05:06:44;14.00;99.90
39099;DHT22;24844;52.380;7.018;2023-05-10T05:09:10;14.10;99.90
39099;DHT22;24844;52.380;7.018;2023-05-10T05:11:35;14.00;99.90
39099;DHT22;24844;52.380;7.018;2023-05-10T05:14:01;14.00;99.90
39099;DHT22;24844;52.380;7.018;2023-05-10T05:16:27;14.10;99.90
39099;DHT22;24844;52.380;7.018;2023-05-10T05:18:52;13.90;99.90
39099;DHT22;24844;52.380;7.018;2023-05-10T05:21:19;13.90;99.90
39099;DHT22;24844;52.380;7.018;2023-05-10T05:23:45;14.10;99.90
39099;DHT22;24844;52.380;7.018;2023-05-10T05:26:11;14.20;99.90
39099;DHT22;24844;52.380;7.018;2023-05-10T05:28:37;14.40;99.90
39099;DHT22;24844;52.380;7.018;2023-05-10T05:31:06;14.30;99.90
39099;DHT22;24844;52.380;7.018;2023-05-10T05:33:33;14.30;99.90
39099;DHT22;24844;52.380;7.018;2023-05-10T05:36:03;14.30;99.90
39099;DHT22;24844;52.380;7.018;2023-05-10T05:38:29;14.50;99.90
39099;DHT22;24844;52.380;7.018;2023-05-10T05:40:54;14.40;99.90
39099;DHT22;24844;52.380;7.018;2023-05-10T05:43:20;14.20;99.90
39099;DHT22;24844;52.380;7.018;2023-05-10T05:45:46;14.50;99.90
39099;DHT22;24844;52.380;7.018;2023-05-10T05:48:11;14.50;99.90
39099;DHT22;24844;52.380;7.018;2023-05-10T05:50:37;14.30;99.90
39099;DHT22;24844;52.380;7.018;2023-05-10T05:53:02;14.10;99.90
39099;DHT22;24844;52.380;7.018;2023-05-10T05:55:28;14.10;99.90
39099;DHT22;24844;52.380;7.018;2023-05-10T05:57:54;14.30;99.90
39099;DHT22;24844;52.380;7.018;2023-05-10T06:00:20;14.30;99.90
39099;DHT22;24844;52.380;7.018;2023-05-10T06:02:46;14.50;99.90
39099;DHT22;24844;52.380;7.018;2023-05-10T06:05:12;14.20;99.90
39099;DHT22;24844;52.380;7.018;2023-05-10T06:07:39;14.70;99.90
39099;DHT22;24844;52.380;7.018;2023-05-10T06:10:07;14.50;99.90
39099;DHT22;24844;52.380;7.018;2023-05-10T06:12:33;14.50;99.90
39099;DHT22;24844;52.380;7.018;2023-05-10T06:14:59;14.20;99.90
39099;DHT22;24844;52.380;7.018;2023-05-10T06:17:25;14.50;99.90
39099;DHT22;24844;52.380;7.018;2023-05-10T06:19:50;14.80;99.90
39099;DHT22;24844;52.380;7.018;2023-05-10T06:22:16;14.80;99.90
39099;DHT22;24844;52.380;7.018;2023-05-10T06:24:41;14.60;99.90
39099;DHT22;24844;52.380;7.018;2023-05-10T06:27:07;14.70;99.90
39099;DHT22;24844;52.380;7.018;2023-05-10T06:29:33;14.80;99.90
39099;DHT22;24844;52.380;7.018;2023-05-10T06:31:58;15.00;99.90
39099;DHT22;24844;52.380;7.018;2023-05-10T06:34:24;14.80;99.90
39099;DHT22;24844;52.380;7.018;2023-05-10T06:36:50;14.80;99.90
39099;DHT22;24844;52.380;7.018;2023-05-10T06:39:15;14.70;99.90
39099;DHT22;24844;52.380;7.018;2023-05-10T06:41:41;14.50;99.90
39099;DHT22;24844;52.380;7.018;2023-05-10T06:44:07;14.60;99.90
39099;DHT22;24844;52.380;7.018;2023-05-10T06:46:33;14.80;99.90
39099;DHT22;24844;52.380;7.018;2023-05-10T06:48:59;14.80;99.90
39099;DHT22;24844;52.380;7.018;2023-05-10T06:51:25;14.90;99.90
39099;DHT22;24844;52.380;7.018;2023-05-10T06:53:51;15.00;99.90
39099;DHT22;24844;52.380;7.018;2023-05-10T06:56:17;15.10;99.90
39099;DHT22;24844;52.380;7.018;2023-05-10T06:58:42;15.50;99.90
39099;DHT22;24844;52.380;7.018;2023-05-10T07:01:08;15.30;99.90
39099;DHT22;24844;52.380;7.018;2023-05-10T07:03:33;15.20;99.90
39099;DHT22;24844;52.380;7.018;2023-05-10T07:06:03;15.10;99.90
39099;DHT22;24844;52.380;7.018;2023-05-10T07:08:30;14.90;99.90
39099;DHT22;24844;52.380;7.018;2023-05-10T07:11:03;14.70;99.90
39099;DHT22;24844;52.380;7.018;2023-05-10T07:13:30;14.80;99.90
39099;DHT22;24844;52.380;7.018;2023-05-10T07:15:57;14.70;99.90
39099;DHT22;24844;52.380;7.018;2023-05-10T07:18:22;14.70;99.90
39099;DHT22;24844;52.380;7.018;2023-05-10T07:20:48;14.90;99.90
39099;DHT22;24844;52.380;7.018;2023-05-10T07:23:14;14.90;99.90
39099;DHT22;24844;52.380;7.018;2023-05-10T07:25:39;15.10;99.90
39099;DHT22;24844;52.380;7.018;2023-05-10T07:28:05;15.10;99.90
39099;DHT22;24844;52.380;7.018;2023-05-10T07:30:31;15.00;99.90
39099;DHT22;24844;52.380;7.018;2023-05-10T07:32:56;15.10;99.90
39099;DHT22;24844;52.380;7.018;2023-05-10T07:35:22;14.90;99.90
39099;DHT22;24844;52.380;7.018;2023-05-10T07:37:47;15.30;99.90
39099;DHT22;24844;52.380;7.018;2023-05-10T07:40:13;15.10;99.90
39099;DHT22;24844;52.380;7.018;2023-05-10T07:42:38;14.90;99.90
39099;DHT22;24844;52.380;7.018;2023-05-10T07:45:04;15.10;99.90
39099;DHT22;24844;52.380;7.018;2023-05-10T07:47:30;14.90;99.90
39099;DHT22;24844;52.380;7.018;2023-05-10T07:49:55;15.00;99.90
39099;DHT22;24844;52.380;7.018;2023-05-10T07:52:21;15.00;99.90
39099;DHT22;24844;52.380;7.018;2023-05-10T07:54:46;14.90;99.90
39099;DHT22;24844;52.380;7.018;2023-05-10T07:57:12;14.70;99.90
39099;DHT22;24844;52.380;7.018;2023-05-10T07:59:39;14.70;99.90
39099;DHT22;24844;52.380;7.018;2023-05-10T08:02:06;14.80;99.90
39099;DHT22;24844;52.380;7.018;2023-05-10T08:04:31;14.70;99.90
39099;DHT22;24844;52.380;7.018;2023-05-10T08:06:57;14.80;99.90
39099;DHT22;24844;52.380;7.018;2023-05-10T08:09:22;14.80;99.90
39099;DHT22;24844;52.380;7.018;2023-05-10T08:11:49;14.90;99.90
39099;DHT22;24844;52.380;7.018;2023-05-10T08:14:16;14.90;99.90
39099;DHT22;24844;52.380;7.018;2023-05-10T08:16:41;15.00;99.90
39099;DHT22;24844;52.380;7.018;2023-05-10T08:19:07;15.10;99.90
39099;DHT22;24844;52.380;7.018;2023-05-10T08:21:33;15.30;99.90
39099;DHT22;24844;52.380;7.018;2023-05-10T08:23:58;15.10;99.90
39099;DHT22;24844;52.380;7.018;2023-05-10T08:26:24;14.80;99.90
39099;DHT22;24844;52.380;7.018;2023-05-10T08:28:50;14.80;99.90
39099;DHT22;24844;52.380;7.018;2023-05-10T08:31:15;14.90;99.90
39099;DHT22;24844;52.380;7.018;2023-05-10T08:33:41;14.90;99.90
39099;DHT22;24844;52.380;7.018;2023-05-10T08:36:07;14.70;99.90
39099;DHT22;24844;52.380;7.018;2023-05-10T08:38:32;14.60;99.90
39099;DHT22;24844;52.380;7.018;2023-05-10T08:40:58;14.60;99.90
39099;DHT22;24844;52.380;7.018;2023-05-10T08:43:28;14.70;99.90
39099;DHT22;24844;52.380;7.018;2023-05-10T08:45:54;14.50;99.90
39099;DHT22;24844;52.380;7.018;2023-05-10T08:48:23;14.40;99.90
39099;DHT22;24844;52.380;7.018;2023-05-10T08:50:52;14.70;99.90
39099;DHT22;24844;52.380;7.018;2023-05-10T08:53:19;14.90;99.90
39099;DHT22;24844;52.380;7.018;2023-05-10T08:55:45;14.70;99.90
39099;DHT22;24844;52.380;7.018;2023-05-10T08:58:11;15.00;99.90
39099;DHT22;24844;52.380;7.018;2023-05-10T09:00:37;15.40;99.90
39099;DHT22;24844;52.380;7.018;2023-05-10T09:03:04;15.20;99.90
39099;DHT22;24844;52.380;7.018;2023-05-10T09:05:30;15.30;99.90
39099;DHT22;24844;52.380;7.018;2023-05-10T09:07:56;15.30;99.90
39099;DHT22;24844;52.380;7.018;2023-05-10T09:10:22;15.70;99.90
39099;DHT22;24844;52.380;7.018;2023-05-10T09:12:51;15.80;99.90
39099;DHT22;24844;52.380;7.018;2023-05-10T09:15:17;16.10;99.90
39099;DHT22;24844;52.380;7.018;2023-05-10T09:17:45;16.30;99.90
39099;DHT22;24844;52.380;7.018;2023-05-10T09:20:11;16.00;99.90
39099;DHT22;24844;52.380;7.018;2023-05-10T09:22:37;16.10;99.90
39099;DHT22;24844;52.380;7.018;2023-05-10T09:25:08;15.90;99.90
39099;DHT22;24844;52.380;7.018;2023-05-10T09:27:35;15.90;99.90
39099;DHT22;24844;52.380;7.018;2023-05-10T09:30:02;16.10;99.90
39099;DHT22;24844;52.380;7.018;2023-05-10T09:32:41;16.20;99.90
39099;DHT22;24844;52.380;7.018;2023-05-10T09:35:16;16.20;99.90
39099;DHT22;24844;52.380;7.018;2023-05-10T09:37:43;16.10;99.90
39099;DHT22;24844;52.380;7.018;2023-05-10T09:40:14;16.00;99.90
39099;DHT22;24844;52.380;7.018;2023-05-10T09:42:50;16.10;99.90
39099;DHT22;24844;52.380;7.018;2023-05-10T09:45:16;16.60;99.90
39099;DHT22;24844;52.380;7.018;2023-05-10T09:47:42;17.10;99.90
39099;DHT22;24844;52.380;7.018;2023-05-10T09:50:08;17.30;99.90
39099;DHT22;24844;52.380;7.018;2023-05-10T09:52:54;17.40;99.90
39099;DHT22;24844;52.380;7.018;2023-05-10T09:55:25;17.90;99.90
39099;DHT22;24844;52.380;7.018;2023-05-10T09:58:01;18.30;99.90
39099;DHT22;24844;52.380;7.018;2023-05-10T10:00:27;18.30;99.90
39099;DHT22;24844;52.380;7.018;2023-05-10T10:02:57;17.90;99.90
39099;DHT22;24844;52.380;7.018;2023-05-10T10:05:33;17.60;99.90
39099;DHT22;24844;52.380;7.018;2023-05-10T10:08:02;17.80;99.90
39099;DHT22;24844;52.380;7.018;2023-05-10T10:10:29;18.30;99.90
39099;DHT22;24844;52.380;7.018;2023-05-10T10:12:55;18.40;99.90
39099;DHT22;24844;52.380;7.018;2023-05-10T10:15:22;18.50;99.90
39099;DHT22;24844;52.380;7.018;2023-05-10T10:17:48;18.50;99.90
39099;DHT22;24844;52.380;7.018;2023-05-10T10:20:15;19.10;99.90
39099;DHT22;24844;52.380;7.018;2023-05-10T10:22:41;19.00;99.90
39099;DHT22;24844;52.380;7.018;2023-05-10T10:25:10;18.30;99.90
39099;DHT22;24844;52.380;7.018;2023-05-10T10:33:29;17.80;99.90
39099;DHT22;24844;52.380;7.018;2023-05-10T10:35:58;17.40;99.90
39099;DHT22;24844;52.380;7.018;2023-05-10T10:38:24;17.60;99.90
39099;DHT22;24844;52.380;7.018;2023-05-10T10:41:02;17.50;99.90
39099;DHT22;24844;52.380;7.018;2023-05-10T10:43:29;17.80;99.90
39099;DHT22;24844;52.380;7.018;2023-05-10T10:48:35;17.40;99.90
39099;DHT22;24844;52.380;7.018;2023-05-10T10:51:01;17.20;99.90
39099;DHT22;24844;52.380;7.018;2023-05-10T10:53:27;17.20;99.90
39099;DHT22;24844;52.380;7.018;2023-05-10T10:56:04;17.50;99.90
39099;DHT22;24844;52.380;7.018;2023-05-10T10:58:32;17.40;99.90
39099;DHT22;24844;52.380;7.018;2023-05-10T11:01:15;17.40;99.90
39099;DHT22;24844;52.380;7.018;2023-05-10T11:04:16;17.30;99.90
39099;DHT22;24844;52.380;7.018;2023-05-10T11:06:40;17.60;99.90
39099;DHT22;24844;52.380;7.018;2023-05-10T11:09:07;17.70;99.90
39099;DHT22;24844;52.380;7.018;2023-05-10T11:11:55;17.60;99.90
39099;DHT22;24844;52.380;7.018;2023-05-10T11:14:21;17.90;99.90
39099;DHT22;24844;52.380;7.018;2023-05-10T11:16:47;17.90;99.90
39099;DHT22;24844;52.380;7.018;2023-05-10T11:19:14;18.00;99.90
39099;DHT22;24844;52.380;7.018;2023-05-10T11:24:31;17.70;99.90
39099;DHT22;24844;52.380;7.018;2023-05-10T11:26:57;17.60;99.90
39099;DHT22;24844;52.380;7.018;2023-05-10T11:29:22;17.50;99.90
39099;DHT22;24844;52.380;7.018;2023-05-10T11:31:50;17.50;99.90
39099;DHT22;24844;52.380;7.018;2023-05-10T11:34:29;17.40;99.90
39099;DHT22;24844;52.380;7.018;2023-05-10T11:36:56;17.20;99.90
39099;DHT22;24844;52.380;7.018;2023-05-10T11:39:29;17.10;99.90
39099;DHT22;24844;52.380;7.018;2023-05-10T11:41:56;17.40;99.90
39099;DHT22;24844;52.380;7.018;2023-05-10T11:44:22;17.30;99.90
39099;DHT22;24844;52.380;7.018;2023-05-10T11:46:48;17.10;99.90
39099;DHT22;24844;52.380;7.018;2023-05-10T11:49:14;16.90;99.90
39099;DHT22;24844;52.380;7.018;2023-05-10T11:51:40;16.70;99.90
39099;DHT22;24844;52.380;7.018;2023-05-10T11:54:08;16.60;99.90
39099;DHT22;24844;52.380;7.018;2023-05-10T11:56:34;16.60;99.90
39099;DHT22;24844;52.380;7.018;2023-05-10T11:59:00;16.50;99.90
39099;DHT22;24844;52.380;7.018;2023-05-10T12:01:28;16.30;99.90
39099;DHT22;24844;52.380;7.018;2023-05-10T12:03:55;16.40;99.90
39099;DHT22;24844;52.380;7.018;2023-05-10T12:06:26;16.50;99.90
39099;DHT22;24844;52.380;7.018;2023-05-10T12:08:52;16.70;99.90
39099;DHT22;24844;52.380;7.018;2023-05-10T12:11:18;16.80;99.90
39099;DHT22;24844;52.380;7.018;2023-05-10T12:13:44;16.70;99.90
39099;DHT22;24844;52.380;7.018;2023-05-10T12:16:13;16.70;99.90
39099;DHT22;24844;52.380;7.018;2023-05-10T12:18:40;16.70;99.90
39099;DHT22;24844;52.380;7.018;2023-05-10T12:21:06;17.10;99.90
39099;DHT22;24844;52.380;7.018;2023-05-10T12:23:32;17.30;99.90
39099;DHT22;24844;52.380;7.018;2023-05-10T12:26:04;17.30;99.90
39099;DHT22;24844;52.380;7.018;2023-05-10T12:28:31;17.40;99.90
39099;DHT22;24844;52.380;7.018;2023-05-10T12:31:02;17.30;99.90
39099;DHT22;24844;52.380;7.018;2023-05-10T12:33:35;17.20;99.90
39099;DHT22;24844;52.380;7.018;2023-05-10T12:36:02;17.10;99.90
39099;DHT22;24844;52.380;7.018;2023-05-10T12:38:44;17.10;99.90
39099;DHT22;24844;52.380;7.018;2023-05-10T12:41:15;17.10;99.90
39099;DHT22;24844;52.380;7.018;2023-05-10T12:43:41;17.10;99.90
39099;DHT22;24844;52.380;7.018;2023-05-10T12:46:08;17.00;99.90
39099;DHT22;24844;52.380;7.018;2023-05-10T12:48:34;16.90;99.90
39099;DHT22;24844;52.380;7.018;2023-05-10T12:51:02;17.00;99.90
39099;DHT22;24844;52.380;7.018;2023-05-10T12:53:27;17.10;99.90
39099;DHT22;24844;52.380;7.018;2023-05-10T12:55:53;17.30;99.90
39099;DHT22;24844;52.380;7.018;2023-05-10T12:58:19;17.80;99.90
39099;DHT22;24844;52.380;7.018;2023-05-10T13:00:45;17.60;99.90
39099;DHT22;24844;52.380;7.018;2023-05-10T13:03:10;17.80;99.90
39099;DHT22;24844;52.380;7.018;2023-05-10T13:05:36;18.00;99.90
39099;DHT22;24844;52.380;7.018;2023-05-10T13:08:02;18.10;99.90
39099;DHT22;24844;52.380;7.018;2023-05-10T13:10:29;18.10;99.90
39099;DHT22;24844;52.380;7.018;2023-05-10T13:12:55;18.20;99.90
39099;DHT22;24844;52.380;7.018;2023-05-10T13:15:21;17.50;99.90
39099;DHT22;24844;52.380;7.018;2023-05-10T13:17:47;17.60;99.90
39099;DHT22;24844;52.380;7.018;2023-05-10T13:20:13;17.80;99.90
39099;DHT22;24844;52.380;7.018;2023-05-10T13:22:38;17.60;99.90
39099;DHT22;24844;52.380;7.018;2023-05-10T13:25:04;17.60;99.90
39099;DHT22;24844;52.380;7.018;2023-05-10T13:27:30;17.50;99.90
39099;DHT22;24844;52.380;7.018;2023-05-10T13:29:55;17.30;99.90
39099;DHT22;24844;52.380;7.018;2023-05-10T13:32:21;17.20;99.90
39099;DHT22;24844;52.380;7.018;2023-05-10T13:34:47;17.30;99.90
39099;DHT22;24844;52.380;7.018;2023-05-10T13:37:12;17.40;99.90
39099;DHT22;24844;52.380;7.018;2023-05-10T13:39:38;17.90;99.90
39099;DHT22;24844;52.380;7.018;2023-05-10T13:42:04;18.00;99.90
39099;DHT22;24844;52.380;7.018;2023-05-10T13:44:30;18.00;99.90
39099;DHT22;24844;52.380;7.018;2023-05-10T13:46:56;18.10;99.90
39099;DHT22;24844;52.380;7.018;2023-05-10T13:49:22;18.10;99.90
39099;DHT22;24844;52.380;7.018;2023-05-10T13:51:47;17.80;99.90
39099;DHT22;24844;52.380;7.018;2023-05-10T13:54:13;18.10;99.90
39099;DHT22;24844;52.380;7.018;2023-05-10T13:56:42;17.80;99.90
39099;DHT22;24844;52.380;7.018;2023-05-10T13:59:09;18.00;99.90
39099;DHT22;24844;52.380;7.018;2023-05-10T14:01:34;17.70;99.90
39099;DHT22;24844;52.380;7.018;2023-05-10T14:04:00;17.90;99.90
39099;DHT22;24844;52.380;7.018;2023-05-10T14:06:25;17.90;99.90
39099;DHT22;24844;52.380;7.018;2023-05-10T14:08:53;17.80;99.90
39099;DHT22;24844;52.380;7.018;2023-05-10T14:11:19;17.90;99.90
39099;DHT22;24844;52.380;7.018;2023-05-10T14:13:45;17.50;99.90
39099;DHT22;24844;52.380;7.018;2023-05-10T14:16:10;17.60;99.90
39099;DHT22;24844;52.380;7.018;2023-05-10T14:18:37;17.40;99.90
39099;DHT22;24844;52.380;7.018;2023-05-10T14:21:03;17.50;99.90
39099;DHT22;24844;52.380;7.018;2023-05-10T14:23:29;17.30;99.90
39099;DHT22;24844;52.380;7.018;2023-05-10T14:25:55;17.20;99.90
39099;DHT22;24844;52.380;7.018;2023-05-10T14:28:21;17.30;99.90
39099;DHT22;24844;52.380;7.018;2023-05-10T14:30:47;17.30;99.90
39099;DHT22;24844;52.380;7.018;2023-05-10T14:33:13;17.20;99.90
39099;DHT22;24844;52.380;7.018;2023-05-10T14:35:39;17.30;99.90
39099;DHT22;24844;52.380;7.018;2023-05-10T14:38:04;17.40;99.90
39099;DHT22;24844;52.380;7.018;2023-05-10T14:40:30;17.70;99.90
39099;DHT22;24844;52.380;7.018;2023-05-10T14:42:56;17.70;99.90
39099;DHT22;24844;52.380;7.018;2023-05-10T14:45:22;17.50;99.90
39099;DHT22;24844;52.380;7.018;2023-05-10T14:47:48;17.70;99.90
39099;DHT22;24844;52.380;7.018;2023-05-10T14:50:14;17.70;99.90
39099;DHT22;24844;52.380;7.018;2023-05-10T14:52:40;17.60;99.90
39099;DHT22;24844;52.380;7.018;2023-05-10T14:55:06;17.70;99.90
39099;DHT22;24844;52.380;7.018;2023-05-10T14:57:32;17.80;99.90
39099;DHT22;24844;52.380;7.018;2023-05-10T14:59:58;17.60;99.90
39099;DHT22;24844;52.380;7.018;2023-05-10T15:02:24;17.70;99.90
39099;DHT22;24844;52.380;7.018;2023-05-10T15:04:49;17.50;99.90
39099;DHT22;24844;52.380;7.018;2023-05-10T15:07:15;17.50;99.90
39099;DHT22;24844;52.380;7.018;2023-05-10T15:09:41;17.60;99.90
39099;DHT22;24844;52.380;7.018;2023-05-10T15:12:07;17.50;99.90
39099;DHT22;24844;52.380;7.018;2023-05-10T15:14:32;17.50;99.90
39099;DHT22;24844;52.380;7.018;2023-05-10T15:16:59;17.70;99.90
39099;DHT22;24844;52.380;7.018;2023-05-10T15:19:24;17.50;99.90
39099;DHT22;24844;52.380;7.018;2023-05-10T15:21:50;17.50;99.90
39099;DHT22;24844;52.380;7.018;2023-05-10T15:24:15;17.40;99.90
39099;DHT22;24844;52.380;7.018;2023-05-10T15:26:41;17.20;99.90
39099;DHT22;24844;52.380;7.018;2023-05-10T15:29:06;17.00;99.90
39099;DHT22;24844;52.380;7.018;2023-05-10T15:31:32;16.80;99.90
39099;DHT22;24844;52.380;7.018;2023-05-10T15:34:01;16.70;99.90
39099;DHT22;24844;52.380;7.018;2023-05-10T15:36:26;16.80;99.90
39099;DHT22;24844;52.380;7.018;2023-05-10T15:38:53;16.90;99.90
39099;DHT22;24844;52.380;7.018;2023-05-10T15:41:19;16.90;99.90
39099;DHT22;24844;52.380;7.018;2023-05-10T15:43:44;17.00;99.90
39099;DHT22;24844;52.380;7.018;2023-05-10T15:46:10;17.10;99.90
39099;DHT22;24844;52.380;7.018;2023-05-10T15:48:35;17.10;99.90
39099;DHT22;24844;52.380;7.018;2023-05-10T15:51:01;17.20;99.90
39099;DHT22;24844;52.380;7.018;2023-05-10T15:53:26;17.10;99.90